Time;durP1;ratioP1;P1;durP2;ratioP2;P2;SDS_P1;SDS_P2;PMS_P1;PMS_P2;Temp;Humidity;BMP_temperature;BMP_pressure;BME280_temperature;BME280_humidity;BME280_pressure;Samples;Min_cycle;Max_cycle;Signal;HPM_P1;HPM_P2
2022/04/24 00:00:02;;;;;;;0.40;0.40;;;12.50;99.90;;;;;;5004273;28;20916;-67
2022/04/24 00:02:27;;;;;;;0.40;0.30;;;12.40;99.90;;;;;;5006761;28;20389;-68
2022/04/24 00:04:53;;;;;;;0.40;0.38;;;12.40;99.90;;;;;;4989908;28;20421;-67
2022/04/24 00:07:19;;;;;;;2.00;1.20;;;12.40;99.90;;;;;;4991484;28;20410;-68
2022/04/24 00:09:45;;;;;;;0.60;0.60;;;12.30;99.90;;;;;;4993564;28;20383;-68
2022/04/24 00:12:15;;;;;;;0.40;0.20;;;12.10;99.90;;;;;;4996691;28;20994;-67
2022/04/24 00:14:42;;;;;;;0.40;0.30;;;12.00;99.90;;;;;;5013826;28;20389;-67
2022/04/24 00:17:08;;;;;;;0.50;0.50;;;12.00;99.90;;;;;;5013010;28;20451;-68
2022/04/24 00:19:34;;;;;;;0.40;0.30;;;12.00;99.90;;;;;;5012746;28;20393;-67
2022/04/24 00:21:59;;;;;;;0.57;0.57;;;12.00;99.90;;;;;;5013117;28;20808;-67
2022/04/24 00:24:25;;;;;;;0.40;0.32;;;11.90;99.90;;;;;;5013639;28;20877;-67
2022/04/24 00:26:54;;;;;;;0.40;0.30;;;11.80;99.90;;;;;;5011243;28;20396;-68
2022/04/24 00:29:20;;;;;;;0.50;0.50;;;11.60;99.90;;;;;;5001043;28;20393;-70
2022/04/24 00:31:46;;;;;;;0.90;0.90;;;11.50;99.90;;;;;;5021832;28;20383;-68
2022/04/24 00:34:12;;;;;;;0.40;0.20;;;11.40;99.90;;;;;;5032601;28;20474;-68
2022/04/24 00:36:38;;;;;;;0.40;0.20;;;11.40;99.90;;;;;;5032986;28;20486;-68
2022/04/24 00:39:04;;;;;;;0.50;0.50;;;11.30;99.90;;;;;;5032508;28;20411;-71
2022/04/24 00:41:30;;;;;;;0.40;0.30;;;11.20;99.90;;;;;;5016076;28;20451;-67
2022/04/24 00:43:56;;;;;;;0.40;0.40;;;11.10;99.90;;;;;;5012943;28;20889;-68
2022/04/24 00:46:27;;;;;;;0.40;0.30;;;10.90;99.90;;;;;;5012222;28;20427;-68
2022/04/24 00:48:53;;;;;;;0.40;0.20;;;10.90;99.90;;;;;;5013062;28;20438;-67
2022/04/24 00:51:18;;;;;;;0.40;0.40;;;10.80;99.90;;;;;;5012242;28;20381;-70
2022/04/24 00:53:44;;;;;;;0.60;0.60;;;10.80;99.90;;;;;;5013108;28;20416;-68
2022/04/24 00:56:10;;;;;;;0.40;0.20;;;10.60;99.90;;;;;;5028295;28;20479;-66
2022/04/24 00:58:36;;;;;;;0.40;0.20;;;10.60;99.90;;;;;;5012624;28;20388;-67
2022/04/24 01:01:01;;;;;;;0.40;0.20;;;10.50;99.90;;;;;;5028099;28;20408;-67
2022/04/24 01:03:28;;;;;;;0.40;0.20;;;10.50;99.90;;;;;;5012374;28;20400;-68
2022/04/24 01:05:55;;;;;;;0.40;0.20;;;10.40;99.90;;;;;;5012476;28;20587;-67
2022/04/24 01:08:21;;;;;;;0.40;0.20;;;10.40;99.90;;;;;;5013070;28;20836;-67
2022/04/24 01:10:46;;;;;;;0.40;0.20;;;10.40;99.90;;;;;;5012074;28;20527;-69
2022/04/24 01:13:12;;;;;;;0.40;0.20;;;10.30;99.90;;;;;;5012489;28;20416;-68
2022/04/24 01:15:37;;;;;;;0.40;0.20;;;10.20;99.90;;;;;;5011779;28;20400;-68
2022/04/24 01:18:03;;;;;;;0.40;0.20;;;10.30;99.90;;;;;;5012609;28;20389;-67
2022/04/24 01:20:29;;;;;;;0.40;0.40;;;10.30;99.90;;;;;;5012052;28;20400;-68
2022/04/24 01:22:55;;;;;;;0.40;0.30;;;10.20;99.90;;;;;;5011632;28;20395;-67
2022/04/24 01:25:20;;;;;;;0.40;0.20;;;10.20;99.90;;;;;;5012905;28;20889;-68
2022/04/24 01:27:46;;;;;;;0.40;0.20;;;10.30;99.90;;;;;;5027009;28;20903;-68
2022/04/24 01:30:12;;;;;;;0.40;0.20;;;10.50;99.90;;;;;;5012492;28;20459;-68
2022/04/24 01:32:39;;;;;;;0.40;0.20;;;10.30;99.90;;;;;;5027773;28;20494;-67
2022/04/24 01:35:05;;;;;;;0.40;0.22;;;10.40;99.90;;;;;;5014195;28;21024;-67
2022/04/24 01:37:31;;;;;;;0.40;0.20;;;10.30;99.90;;;;;;5011915;28;20801;-68
2022/04/24 01:39:57;;;;;;;0.40;0.20;;;10.20;99.90;;;;;;5011275;28;20421;-67
2022/04/24 01:42:23;;;;;;;0.40;0.20;;;10.20;99.90;;;;;;5012130;28;20385;-67
2022/04/24 01:44:48;;;;;;;0.40;0.20;;;10.10;99.90;;;;;;5012216;28;20416;-67
2022/04/24 01:47:14;;;;;;;0.40;0.30;;;10.00;99.90;;;;;;5011417;28;20616;-67
2022/04/24 01:49:40;;;;;;;0.40;0.20;;;10.00;99.90;;;;;;5012385;28;20385;-67
2022/04/24 01:52:06;;;;;;;0.40;0.20;;;9.80;99.90;;;;;;5011590;28;20385;-67
2022/04/24 01:54:32;;;;;;;0.40;0.20;;;9.80;99.90;;;;;;5011466;28;20400;-68
2022/04/24 01:56:58;;;;;;;0.40;0.20;;;9.70;99.90;;;;;;5027180;28;20373;-67
2022/04/24 01:59:25;;;;;;;0.40;0.20;;;9.50;99.90;;;;;;5011017;28;20384;-68
2022/04/24 02:01:50;;;;;;;1.40;0.70;;;9.40;99.90;;;;;;5011884;28;20385;-67
2022/04/24 02:04:19;;;;;;;0.40;0.20;;;9.40;99.90;;;;;;5009813;28;20826;-68
2022/04/24 02:06:45;;;;;;;0.40;0.20;;;9.30;99.90;;;;;;5011551;28;20416;-68
2022/04/24 02:09:10;;;;;;;0.40;0.20;;;9.30;99.90;;;;;;5011676;28;20385;-71
2022/04/24 02:11:37;;;;;;;0.40;0.20;;;9.40;99.90;;;;;;5010911;28;20388;-68
2022/04/24 02:14:03;;;;;;;0.40;0.30;;;9.40;99.90;;;;;;5011729;28;20442;-68
2022/04/24 02:16:30;;;;;;;0.40;0.20;;;9.30;99.90;;;;;;5010644;28;20789;-67
2022/04/24 02:18:55;;;;;;;0.40;0.20;;;9.20;99.90;;;;;;5011569;28;20468;-69
2022/04/24 02:21:21;;;;;;;0.40;0.20;;;9.20;99.90;;;;;;5010793;28;20937;-69
2022/04/24 02:23:47;;;;;;;0.40;0.20;;;9.70;99.90;;;;;;5011473;28;20389;-68
2022/04/24 02:26:12;;;;;;;0.40;0.20;;;9.20;99.90;;;;;;5011349;28;20452;-68
2022/04/24 02:28:38;;;;;;;0.50;0.50;;;9.20;99.90;;;;;;5010356;28;20381;-69
2022/04/24 02:31:04;;;;;;;0.40;0.20;;;9.10;99.90;;;;;;5012901;28;20388;-69
2022/04/24 02:33:29;;;;;;;0.40;0.20;;;9.00;99.90;;;;;;5033613;28;20466;-69
2022/04/24 02:35:55;;;;;;;0.40;0.20;;;8.90;99.90;;;;;;5011209;28;20459;-69
2022/04/24 02:38:22;;;;;;;0.40;0.20;;;8.90;99.90;;;;;;5011554;28;20472;-68
2022/04/24 02:40:48;;;;;;;0.40;0.20;;;8.80;99.90;;;;;;5010375;28;20400;-69
2022/04/24 02:43:14;;;;;;;0.40;0.20;;;8.80;99.90;;;;;;5011351;28;20715;-68
2022/04/24 02:45:43;;;;;;;0.40;0.20;;;8.70;99.90;;;;;;5010579;28;20462;-70
2022/04/24 02:48:09;;;;;;;0.40;0.20;;;8.60;99.90;;;;;;5010882;28;20385;-73
2022/04/24 02:50:35;;;;;;;0.40;0.20;;;8.60;99.90;;;;;;5010699;28;20397;-72
2022/04/24 02:53:01;;;;;;;0.40;0.20;;;8.50;99.90;;;;;;5010599;28;20451;-71
2022/04/24 02:55:26;;;;;;;0.40;0.20;;;8.50;99.90;;;;;;5011035;28;20841;-71
2022/04/24 02:57:53;;;;;;;0.40;0.20;;;8.50;99.90;;;;;;5010062;28;20393;-71
2022/04/24 03:00:22;;;;;;;0.40;0.20;;;8.40;99.90;;;;;;5009691;28;20769;-71
2022/04/24 03:02:49;;;;;;;0.40;0.20;;;8.30;99.90;;;;;;5010041;28;20447;-69
2022/04/24 03:05:24;;;;;;;0.40;0.20;;;8.40;99.90;;;;;;5010521;28;20411;-70
2022/04/24 03:07:50;;;;;;;0.40;0.20;;;8.30;99.90;;;;;;5009941;28;20468;-70
2022/04/24 03:10:16;;;;;;;0.40;0.20;;;8.30;99.90;;;;;;5005990;28;20446;-71
2022/04/24 03:12:43;;;;;;;0.40;0.20;;;8.20;99.90;;;;;;4991196;28;20397;-72
2022/04/24 03:15:12;;;;;;;0.40;0.20;;;8.20;99.90;;;;;;4990433;28;20391;-69
2022/04/24 03:17:38;;;;;;;0.40;0.20;;;8.20;99.90;;;;;;4991057;28;20383;-69
2022/04/24 03:20:06;;;;;;;0.40;0.20;;;8.20;99.90;;;;;;4990395;28;20382;-69
2022/04/24 03:22:33;;;;;;;0.40;0.20;;;8.20;99.90;;;;;;4989856;28;20872;-69
2022/04/24 03:25:00;;;;;;;0.40;0.20;;;8.20;99.90;;;;;;4991988;28;20831;-69
2022/04/24 03:27:25;;;;;;;0.40;0.20;;;8.20;99.90;;;;;;5010289;28;20385;-70
2022/04/24 03:29:51;;;;;;;0.40;0.20;;;8.20;99.90;;;;;;5010517;28;20380;-69
2022/04/24 03:32:17;;;;;;;0.40;0.20;;;8.20;99.90;;;;;;5009777;28;20412;-69
2022/04/24 03:34:43;;;;;;;0.40;0.20;;;8.10;99.90;;;;;;5010999;28;20454;-69
2022/04/24 03:37:08;;;;;;;0.40;0.20;;;8.10;99.90;;;;;;5009183;28;20401;-70
2022/04/24 03:39:34;;;;;;;0.40;0.20;;;8.20;99.90;;;;;;5011140;28;20882;-69
2022/04/24 03:42:00;;;;;;;0.40;0.28;;;8.20;99.90;;;;;;5011434;28;20923;-69
2022/04/24 03:44:26;;;;;;;0.40;0.20;;;8.30;99.90;;;;;;5013753;28;20423;-69
2022/04/24 03:46:52;;;;;;;0.40;0.20;;;8.30;99.90;;;;;;5014570;28;20399;-70
2022/04/24 03:49:18;;;;;;;0.40;0.20;;;8.30;99.90;;;;;;5013548;28;20735;-71
2022/04/24 03:51:43;;;;;;;0.40;0.20;;;8.30;99.90;;;;;;5014584;28;20381;-70
2022/04/24 03:54:09;;;;;;;0.40;0.20;;;8.20;99.90;;;;;;5013477;28;20393;-70
2022/04/24 03:56:35;;;;;;;0.40;0.20;;;8.20;99.90;;;;;;5013678;28;20384;-70
2022/04/24 03:59:01;;;;;;;0.40;0.20;;;8.20;99.90;;;;;;5014354;28;20385;-70
2022/04/24 04:01:27;;;;;;;0.60;0.60;;;8.30;99.90;;;;;;5013373;28;20857;-70
2022/04/24 04:03:53;;;;;;;0.40;0.20;;;8.20;99.90;;;;;;5013745;28;20551;-70
2022/04/24 04:06:19;;;;;;;0.40;0.20;;;8.20;99.90;;;;;;5013747;28;20869;-70
2022/04/24 04:08:45;;;;;;;0.40;0.20;;;8.10;99.90;;;;;;5013583;28;20399;-70
2022/04/24 04:11:12;;;;;;;0.40;0.20;;;8.10;99.90;;;;;;5013655;28;20920;-70
2022/04/24 04:13:37;;;;;;;0.40;0.20;;;8.10;99.90;;;;;;5013163;28;20417;-70
2022/04/24 04:16:03;;;;;;;0.40;0.20;;;8.20;99.90;;;;;;5013963;28;20873;-70
2022/04/24 04:18:29;;;;;;;0.40;0.20;;;8.20;99.90;;;;;;5013451;28;20389;-71
2022/04/24 04:20:55;;;;;;;0.40;0.20;;;8.20;99.90;;;;;;5013942;28;20373;-70
2022/04/24 04:23:20;;;;;;;0.40;0.20;;;8.20;99.90;;;;;;5013376;28;20389;-70
2022/04/24 04:25:46;;;;;;;0.40;0.20;;;8.20;99.90;;;;;;5011586;28;20515;-70
2022/04/24 04:28:12;;;;;;;0.40;0.20;;;8.20;99.90;;;;;;5012671;28;20992;-70
2022/04/24 04:30:37;;;;;;;0.40;0.20;;;8.30;99.90;;;;;;5011627;28;20793;-71
2022/04/24 04:33:03;;;;;;;0.40;0.20;;;8.30;99.90;;;;;;5015250;28;20415;-70
2022/04/24 04:35:28;;;;;;;0.40;0.20;;;8.20;99.90;;;;;;5013555;28;20408;-70
2022/04/24 04:37:54;;;;;;;0.40;0.20;;;8.10;99.90;;;;;;5012004;28;20773;-70
2022/04/24 04:40:23;;;;;;;0.40;0.20;;;8.30;99.90;;;;;;5012810;28;20416;-70
2022/04/24 04:42:49;;;;;;;0.40;0.20;;;8.20;99.90;;;;;;5012788;28;20399;-70
2022/04/24 04:45:16;;;;;;;0.40;0.20;;;8.20;99.90;;;;;;5010934;28;20453;-70
2022/04/24 04:47:42;;;;;;;0.40;0.20;;;8.30;99.90;;;;;;4993962;28;20391;-70
2022/04/24 04:50:09;;;;;;;0.40;0.20;;;8.10;99.90;;;;;;4993633;28;20545;-71
2022/04/24 04:52:35;;;;;;;0.40;0.20;;;8.20;99.90;;;;;;5013594;28;20400;-70
2022/04/24 04:55:03;;;;;;;0.40;0.20;;;8.10;99.90;;;;;;5006053;28;20398;-70
2022/04/24 04:57:31;;;;;;;0.40;0.20;;;8.20;99.90;;;;;;5025491;28;20389;-70
2022/04/24 04:59:56;;;;;;;0.40;0.20;;;8.20;99.90;;;;;;4992747;28;20513;-70
2022/04/24 05:02:23;;;;;;;0.40;0.20;;;8.20;99.90;;;;;;5008474;28;20848;-70
2022/04/24 05:04:48;;;;;;;0.40;0.20;;;8.30;99.90;;;;;;4993482;28;20422;-70
2022/04/24 05:07:14;;;;;;;0.40;0.20;;;8.30;99.90;;;;;;5008144;28;20413;-70
2022/04/24 05:09:40;;;;;;;0.40;0.20;;;8.30;99.90;;;;;;5011565;28;20943;-70
2022/04/24 05:12:10;;;;;;;0.40;0.20;;;8.20;99.90;;;;;;5012250;28;20377;-70
2022/04/24 05:14:36;;;;;;;0.40;0.20;;;8.50;99.90;;;;;;5013055;28;20381;-70
2022/04/24 05:17:02;;;;;;;0.40;0.20;;;8.40;99.90;;;;;;5013116;28;20451;-71
2022/04/24 05:19:27;;;;;;;0.50;0.50;;;8.40;99.90;;;;;;5011604;28;20762;-69
2022/04/24 05:21:53;;;;;;;0.40;0.20;;;8.50;99.90;;;;;;5012809;28;20377;-70
2022/04/24 05:24:19;;;;;;;0.40;0.20;;;8.50;99.90;;;;;;5011667;28;20912;-70
2022/04/24 05:26:45;;;;;;;0.40;0.20;;;8.40;99.90;;;;;;5011602;28;20459;-70
2022/04/24 05:29:12;;;;;;;0.40;0.20;;;8.40;99.90;;;;;;5012345;28;20845;-71
2022/04/24 05:31:37;;;;;;;0.40;0.20;;;8.40;99.90;;;;;;5019359;28;20383;-71
2022/04/24 05:34:03;;;;;;;0.40;0.20;;;8.50;99.90;;;;;;5011579;28;20885;-70
2022/04/24 05:36:28;;;;;;;0.40;0.20;;;8.40;99.90;;;;;;5011894;28;20396;-70
2022/04/24 05:38:54;;;;;;;0.40;0.20;;;8.50;99.90;;;;;;5011968;28;20412;-69
2022/04/24 05:41:20;;;;;;;0.40;0.20;;;8.40;99.90;;;;;;5012098;28;20702;-71
2022/04/24 05:43:46;;;;;;;0.40;0.23;;;8.40;99.90;;;;;;5011761;28;20389;-69
2022/04/24 05:46:12;;;;;;;0.40;0.30;;;8.40;99.90;;;;;;5011792;28;20401;-70
2022/04/24 05:48:37;;;;;;;0.40;0.20;;;8.40;99.90;;;;;;5011539;28;20419;-69
2022/04/24 05:51:03;;;;;;;0.40;0.20;;;8.40;99.90;;;;;;5012309;28;20476;-69
2022/04/24 05:53:29;;;;;;;0.40;0.20;;;8.40;99.90;;;;;;5009520;28;20493;-70
2022/04/24 05:55:55;;;;;;;0.40;0.20;;;8.40;99.90;;;;;;5007257;28;20455;-69
2022/04/24 05:58:20;;;;;;;0.40;0.20;;;8.50;99.90;;;;;;5012000;28;20854;-70
2022/04/24 06:00:46;;;;;;;0.40;0.20;;;8.50;99.90;;;;;;5010609;28;20388;-69
2022/04/24 06:03:12;;;;;;;0.40;0.20;;;8.50;99.90;;;;;;5011825;28;20388;-69
2022/04/24 06:05:38;;;;;;;0.40;0.20;;;8.50;99.90;;;;;;5010639;28;20423;-69
2022/04/24 06:08:04;;;;;;;0.40;0.20;;;8.50;99.90;;;;;;5027188;28;20401;-69
2022/04/24 06:10:30;;;;;;;0.40;0.20;;;8.50;99.90;;;;;;5011939;28;20387;-69
2022/04/24 06:12:56;;;;;;;0.40;0.20;;;8.50;99.90;;;;;;5010666;28;20385;-69
2022/04/24 06:15:26;;;;;;;0.40;0.20;;;8.50;99.90;;;;;;5011837;28;20473;-69
2022/04/24 06:17:57;;;;;;;0.40;0.20;;;8.60;99.90;;;;;;5010759;28;20723;-69
2022/04/24 06:20:24;;;;;;;0.40;0.20;;;8.80;99.90;;;;;;5011188;28;20405;-69
2022/04/24 06:22:55;;;;;;;0.40;0.20;;;8.70;99.90;;;;;;5010238;28;20388;-70
2022/04/24 06:25:32;;;;;;;0.40;0.20;;;8.70;99.90;;;;;;5009316;28;20427;-69
2022/04/24 06:27:58;;;;;;;0.40;0.20;;;8.70;99.90;;;;;;5003534;28;20412;-69
2022/04/24 06:30:26;;;;;;;0.40;0.20;;;8.70;99.90;;;;;;5009251;28;20400;-70
2022/04/24 06:32:51;;;;;;;0.40;0.20;;;8.60;99.90;;;;;;5028223;28;20409;-71
2022/04/24 06:35:18;;;;;;;0.40;0.20;;;8.70;99.90;;;;;;5003047;28;20898;-69
2022/04/24 06:37:46;;;;;;;0.40;0.20;;;8.70;99.90;;;;;;4991319;28;20902;-69
2022/04/24 06:40:14;;;;;;;0.40;0.20;;;8.70;99.90;;;;;;4998844;28;20484;-69
2022/04/24 06:42:59;;;;;;;0.40;0.20;;;8.70;99.90;;;;;;5006924;28;20409;-69
2022/04/24 06:45:28;;;;;;;0.40;0.20;;;8.80;99.90;;;;;;4991160;28;20481;-69
2022/04/24 06:47:55;;;;;;;0.40;0.20;;;9.00;99.90;;;;;;5021574;28;20391;-69
2022/04/24 06:50:22;;;;;;;0.40;0.20;;;9.10;99.90;;;;;;5009334;28;20443;-69
2022/04/24 06:53:01;;;;;;;0.40;0.20;;;9.00;99.90;;;;;;5005631;28;20399;-69
2022/04/24 06:55:31;;;;;;;0.40;0.20;;;9.30;99.90;;;;;;5000066;28;20388;-69
2022/04/24 06:57:58;;;;;;;0.40;0.20;;;9.20;99.90;;;;;;5011187;28;20381;-69
2022/04/24 07:00:25;;;;;;;0.40;0.20;;;9.20;99.90;;;;;;5005266;28;20386;-70
2022/04/24 07:02:52;;;;;;;0.40;0.20;;;9.20;99.90;;;;;;5010973;28;20393;-69
2022/04/24 07:05:21;;;;;;;0.40;0.20;;;9.30;99.90;;;;;;5004231;28;20423;-69
2022/04/24 07:07:47;;;;;;;0.40;0.20;;;9.40;99.90;;;;;;5011062;28;20397;-68
2022/04/24 07:10:13;;;;;;;0.40;0.20;;;9.40;99.90;;;;;;4997528;28;20393;-69
2022/04/24 07:12:50;;;;;;;0.40;0.20;;;9.40;99.90;;;;;;5007303;28;20783;-69
2022/04/24 07:15:17;;;;;;;0.40;0.20;;;9.60;99.90;;;;;;5008526;28;20408;-68
2022/04/24 07:17:47;;;;;;;0.40;0.20;;;9.50;99.90;;;;;;5012176;28;20400;-68
2022/04/24 07:20:15;;;;;;;0.40;0.20;;;9.90;99.90;;;;;;5011949;28;20719;-70
2022/04/24 07:22:48;;;;;;;0.40;0.20;;;9.80;99.90;;;;;;5014218;28;20428;-68
2022/04/24 07:25:16;;;;;;;0.40;0.20;;;10.10;99.90;;;;;;5013330;28;20905;-69
2022/04/24 07:27:42;;;;;;;0.40;0.20;;;10.10;99.90;;;;;;5002634;28;20405;-69
2022/04/24 07:30:13;;;;;;;0.40;0.20;;;10.20;99.90;;;;;;5012309;28;20400;-68
2022/04/24 07:32:53;;;;;;;0.40;0.20;;;10.30;99.90;;;;;;5012003;28;20400;-68
2022/04/24 07:35:20;;;;;;;0.40;0.20;;;10.40;99.90;;;;;;5014504;28;20427;-69
2022/04/24 07:37:47;;;;;;;0.40;0.20;;;10.60;99.90;;;;;;5012717;28;20893;-69
2022/04/24 07:40:15;;;;;;;0.40;0.20;;;10.50;99.90;;;;;;5013910;28;20478;-69
2022/04/24 07:42:44;;;;;;;0.40;0.20;;;10.70;99.90;;;;;;5013156;28;20412;-69
2022/04/24 07:45:10;;;;;;;0.40;0.30;;;10.70;99.90;;;;;;5013907;28;20491;-68
2022/04/24 07:47:35;;;;;;;0.40;0.20;;;10.70;99.90;;;;;;5004538;28;20509;-69
2022/04/24 07:50:01;;;;;;;0.40;0.20;;;10.80;99.90;;;;;;5013450;28;20945;-69
2022/04/24 07:52:26;;;;;;;0.40;0.20;;;10.80;99.90;;;;;;5013213;28;20392;-70
2022/04/24 07:54:52;;;;;;;0.40;0.20;;;11.00;99.90;;;;;;5012640;28;20408;-70
2022/04/24 07:57:18;;;;;;;0.40;0.20;;;11.00;99.90;;;;;;5013945;28;20385;-70
2022/04/24 07:59:44;;;;;;;0.40;0.20;;;11.00;99.90;;;;;;5012974;28;20392;-70
2022/04/24 08:02:10;;;;;;;0.40;0.20;;;11.00;99.90;;;;;;5007951;28;20744;-69
2022/04/24 08:04:36;;;;;;;0.40;0.20;;;10.90;99.90;;;;;;5003856;28;20416;-70
2022/04/24 08:07:02;;;;;;;0.40;0.20;;;10.80;99.90;;;;;;5012498;28;20416;-69
2022/04/24 08:09:28;;;;;;;0.40;0.20;;;10.80;99.90;;;;;;5010671;28;20432;-69
2022/04/24 08:11:54;;;;;;;0.40;0.20;;;10.80;99.90;;;;;;5010937;28;20439;-71
2022/04/24 08:14:21;;;;;;;0.40;0.20;;;10.90;99.90;;;;;;5018868;28;20383;-70
2022/04/24 08:16:47;;;;;;;0.40;0.20;;;11.00;99.90;;;;;;5023210;28;20904;-70
2022/04/24 08:19:13;;;;;;;0.40;0.20;;;10.90;99.90;;;;;;5020965;28;20391;-70
2022/04/24 08:21:38;;;;;;;0.70;0.70;;;11.00;99.90;;;;;;5007936;28;20401;-70
2022/04/24 08:24:04;;;;;;;0.40;0.20;;;11.20;99.90;;;;;;5007648;28;20401;-69
2022/04/24 08:26:30;;;;;;;0.40;0.20;;;11.20;99.90;;;;;;5012788;28;20412;-69
2022/04/24 08:28:56;;;;;;;0.40;0.20;;;11.30;99.90;;;;;;5009484;28;20577;-69
2022/04/24 08:31:21;;;;;;;0.40;0.20;;;11.30;99.90;;;;;;5011546;28;20459;-69
2022/04/24 08:33:47;;;;;;;0.40;0.20;;;11.30;99.90;;;;;;5012044;28;20396;-69
2022/04/24 08:36:13;;;;;;;0.40;0.20;;;11.30;99.90;;;;;;5010791;28;20401;-70
2022/04/24 08:38:39;;;;;;;0.40;0.20;;;11.30;99.90;;;;;;5011468;28;20755;-73
2022/04/24 08:41:05;;;;;;;0.40;0.20;;;11.10;99.90;;;;;;5010177;28;20401;-69
2022/04/24 08:43:32;;;;;;;0.40;0.20;;;11.10;99.90;;;;;;5011772;28;20428;-70
2022/04/24 08:45:58;;;;;;;0.40;0.20;;;11.20;99.90;;;;;;5010659;28;20432;-70
2022/04/24 08:48:23;;;;;;;0.40;0.20;;;11.10;99.90;;;;;;5010223;28;20405;-70
2022/04/24 08:50:52;;;;;;;0.40;0.20;;;11.20;99.90;;;;;;5009491;28;20389;-70
2022/04/24 08:53:18;;;;;;;0.40;0.20;;;11.20;99.90;;;;;;5010915;28;20719;-70
2022/04/24 08:55:44;;;;;;;0.40;0.20;;;11.30;99.90;;;;;;5011315;28;20439;-70
2022/04/24 08:58:10;;;;;;;0.40;0.20;;;11.40;99.90;;;;;;5005298;28;20401;-69
2022/04/24 09:00:36;;;;;;;0.40;0.20;;;11.30;99.90;;;;;;5011525;28;20408;-69
2022/04/24 09:03:01;;;;;;;0.40;0.20;;;11.30;99.90;;;;;;5008888;28;20750;-69
2022/04/24 09:05:30;;;;;;;0.40;0.20;;;11.40;99.90;;;;;;5003869;28;20424;-70
2022/04/24 09:08:08;;;;;;;0.40;0.20;;;11.50;99.90;;;;;;5011555;28;20428;-69
2022/04/24 09:10:51;;;;;;;0.40;0.20;;;11.60;99.90;;;;;;5022696;28;20405;-72
2022/04/24 09:14:14;;;;;;;0.40;0.20;;;11.50;99.90;;;;;;5010411;28;20389;-70
2022/04/24 09:16:19;;;;;;;0.40;0.20;;;11.60;99.90;;;;;;5010282;28;20483;-71
2022/04/24 09:18:46;;;;;;;0.40;0.20;;;11.60;99.90;;;;;;5011116;28;20385;-70
2022/04/24 09:21:13;;;;;;;0.40;0.20;;;11.60;99.90;;;;;;5007102;28;20471;-70
2022/04/24 09:23:42;;;;;;;0.40;0.20;;;11.50;99.90;;;;;;5009269;28;21086;-70
2022/04/24 09:26:14;;;;;;;0.40;0.20;;;11.50;99.90;;;;;;5011427;28;20423;-70
2022/04/24 09:28:40;;;;;;;0.40;0.20;;;11.50;99.90;;;;;;5010683;28;20717;-72
2022/04/24 09:31:07;;;;;;;0.40;0.20;;;11.50;99.90;;;;;;5011579;28;20398;-72
2022/04/24 09:33:37;;;;;;;0.40;0.20;;;11.50;99.90;;;;;;5010675;28;20749;-72
2022/04/24 09:36:03;;;;;;;0.40;0.20;;;11.40;99.90;;;;;;5011281;28;20409;-71
2022/04/24 09:38:29;;;;;;;0.40;0.20;;;11.20;99.90;;;;;;5010491;28;20447;-74
2022/04/24 09:40:54;;;;;;;0.40;0.20;;;11.00;99.90;;;;;;5003172;28;21332;-74
2022/04/24 09:43:20;;;;;;;0.40;0.20;;;10.90;99.90;;;;;;5008288;28;20392;-71
2022/04/24 09:45:48;;;;;;;0.40;0.20;;;10.90;99.90;;;;;;5008636;28;20839;-71
2022/04/24 09:48:19;;;;;;;0.40;0.20;;;10.70;99.90;;;;;;5008671;28;20411;-71
2022/04/24 09:50:45;;;;;;;0.40;0.20;;;10.70;99.90;;;;;;5009239;28;20435;-71
2022/04/24 09:53:15;;;;;;;0.40;0.20;;;10.70;99.90;;;;;;5012554;28;20395;-71
2022/04/24 09:55:43;;;;;;;0.40;0.20;;;10.70;99.90;;;;;;5005832;28;20397;-71
2022/04/24 09:58:13;;;;;;;0.40;0.20;;;10.70;99.90;;;;;;5009681;28;20441;-71
2022/04/24 10:00:42;;;;;;;0.40;0.20;;;10.60;99.90;;;;;;5010125;28;20386;-73
2022/04/24 10:03:14;;;;;;;0.40;0.20;;;10.70;99.90;;;;;;5010699;28;20380;-72
2022/04/24 10:05:43;;;;;;;0.40;0.20;;;10.80;99.90;;;;;;5019236;28;20506;-72
2022/04/24 10:08:09;;;;;;;0.40;0.20;;;10.80;99.90;;;;;;5010750;28;20404;-71
2022/04/24 10:10:36;;;;;;;0.40;0.20;;;10.80;99.90;;;;;;5011532;28;20447;-71
2022/04/24 10:13:06;;;;;;;0.40;0.20;;;10.90;99.90;;;;;;5010623;28;20385;-70
2022/04/24 10:15:33;;;;;;;0.40;0.20;;;11.00;99.90;;;;;;5012210;28;20515;-70
2022/04/24 10:18:32;;;;;;;0.40;0.20;;;11.00;99.90;;;;;;5003252;28;20396;-71
2022/04/24 10:21:16;;;;;;;0.40;0.20;;;11.00;99.90;;;;;;5010923;28;20413;-72
2022/04/24 10:23:42;;;;;;;0.40;0.20;;;11.00;99.90;;;;;;5011636;28;20436;-70
2022/04/24 10:26:19;;;;;;;0.40;0.20;;;11.10;99.90;;;;;;5005177;28;20999;-71
2022/04/24 10:28:47;;;;;;;0.40;0.20;;;11.20;99.90;;;;;;5024844;28;20422;-72
2022/04/24 10:31:13;;;;;;;0.40;0.20;;;11.30;99.90;;;;;;5027303;28;20451;-71
2022/04/24 10:33:51;;;;;;;0.40;0.20;;;11.40;99.90;;;;;;5011453;28;20387;-71
2022/04/24 10:36:17;;;;;;;0.40;0.20;;;11.60;99.90;;;;;;5011678;28;20401;-71
2022/04/24 10:39:01;;;;;;;0.40;0.20;;;11.50;99.90;;;;;;5011440;28;20428;-71
2022/04/24 10:41:31;;;;;;;0.40;0.20;;;11.80;99.90;;;;;;5011210;28;20730;-71
2022/04/24 10:44:10;;;;;;;0.40;0.20;;;11.80;99.90;;;;;;5006845;28;20407;-71
2022/04/24 10:46:40;;;;;;;0.40;0.20;;;11.80;99.90;;;;;;5009665;28;20471;-71
2022/04/24 10:49:13;;;;;;;0.40;0.30;;;11.80;99.90;;;;;;5003032;28;20449;-71
2022/04/24 10:51:42;;;;;;;0.40;0.20;;;11.70;99.90;;;;;;4993612;28;20378;-71
2022/04/24 10:54:13;;;;;;;0.40;0.20;;;11.80;99.90;;;;;;5021064;28;20379;-71
2022/04/24 10:56:41;;;;;;;0.40;0.20;;;11.90;99.90;;;;;;5010987;28;20900;-71
2022/04/24 10:59:18;;;;;;;0.40;0.20;;;11.80;99.90;;;;;;5009256;28;20475;-71
2022/04/24 11:01:50;;;;;;;0.80;0.80;;;11.70;99.90;;;;;;5014003;28;20740;-71
2022/04/24 11:04:17;;;;;;;0.40;0.20;;;11.60;99.90;;;;;;5031323;28;20427;-72
2022/04/24 11:07:02;;;;;;;0.40;0.20;;;11.40;99.90;;;;;;5005912;28;20846;-71
2022/04/24 11:09:33;;;;;;;0.40;0.20;;;11.60;99.90;;;;;;5011079;28;20399;-71
2022/04/24 11:12:03;;;;;;;0.40;0.20;;;11.50;99.90;;;;;;5030437;28;20470;-70
2022/04/24 11:14:30;;;;;;;0.40;0.20;;;11.50;99.90;;;;;;5030413;28;20379;-71
2022/04/24 11:17:00;;;;;;;0.40;0.20;;;11.50;99.90;;;;;;5012663;28;20455;-71
2022/04/24 11:19:35;;;;;;;0.40;0.20;;;11.60;99.90;;;;;;5009779;28;20380;-70
2022/04/24 11:22:07;;;;;;;0.40;0.20;;;11.60;99.90;;;;;;5011181;28;20408;-71
2022/04/24 11:24:35;;;;;;;0.40;0.20;;;11.50;99.90;;;;;;5009311;28;20389;-70
2022/04/24 11:27:09;;;;;;;0.40;0.20;;;11.40;99.90;;;;;;5009823;28;20809;-71
2022/04/24 11:29:34;;;;;;;0.40;0.20;;;11.40;99.90;;;;;;5009697;28;20408;-70
2022/04/24 11:32:02;;;;;;;0.40;0.20;;;11.30;99.90;;;;;;5010168;28;20400;-71
2022/04/24 11:34:28;;;;;;;0.40;0.20;;;11.20;99.90;;;;;;5023298;28;20400;-70
2022/04/24 11:36:59;;;;;;;0.40;0.20;;;11.10;99.90;;;;;;5004897;28;20405;-71
2022/04/24 11:39:25;;;;;;;0.40;0.20;;;11.00;99.90;;;;;;5012800;28;20407;-69
2022/04/24 11:41:52;;;;;;;0.40;0.20;;;11.00;99.90;;;;;;5030206;28;20402;-69
2022/04/24 11:52:36;;;;;;;0.40;0.20;;;10.70;99.90;;;;;;5010467;28;20440;-70
2022/04/24 11:55:14;;;;;;;0.40;0.20;;;10.80;99.90;;;;;;5010004;28;20397;-69
2022/04/24 11:57:41;;;;;;;0.40;0.20;;;10.80;99.90;;;;;;5009313;28;20396;-69
2022/04/24 12:00:18;;;;;;;0.40;0.20;;;10.90;99.90;;;;;;5007662;28;20512;-69
2022/04/24 12:02:44;;;;;;;0.40;0.20;;;10.70;99.90;;;;;;5018484;28;20398;-70
2022/04/24 12:05:10;;;;;;;0.40;0.20;;;10.70;99.90;;;;;;5036926;28;20417;-70
2022/04/24 12:07:37;;;;;;;0.40;0.20;;;10.70;99.90;;;;;;5021319;28;20434;-71
2022/04/24 12:10:09;;;;;;;0.40;0.20;;;10.80;99.90;;;;;;5024828;28;20419;-69
2022/04/24 12:12:47;;;;;;;0.40;0.20;;;10.80;99.90;;;;;;5010750;28;20818;-68
2022/04/24 12:15:14;;;;;;;0.40;0.20;;;10.80;99.90;;;;;;5019316;28;21151;-69
2022/04/24 12:17:54;;;;;;;0.40;0.20;;;10.70;99.90;;;;;;5016669;28;20405;-70
2022/04/24 12:20:38;;;;;;;0.40;0.30;;;10.70;99.90;;;;;;5019465;28;20751;-69
2022/04/24 12:23:11;;;;;;;0.40;0.20;;;10.70;99.90;;;;;;5023585;28;20385;-70
2022/04/24 12:25:52;;;;;;;0.40;0.20;;;10.70;99.90;;;;;;5017340;28;20412;-70
2022/04/24 12:28:39;;;;;;;0.40;0.20;;;10.60;99.90;;;;;;5009500;28;20428;-69
2022/04/24 12:31:06;;;;;;;0.40;0.20;;;10.50;99.90;;;;;;5011758;28;20404;-69
2022/04/24 12:33:44;;;;;;;0.40;0.20;;;10.80;99.90;;;;;;5012398;28;20397;-70
2022/04/24 12:36:13;;;;;;;0.40;0.20;;;10.70;99.90;;;;;;5015333;28;20401;-70
2022/04/24 12:38:40;;;;;;;0.50;0.50;;;10.70;99.90;;;;;;5017329;28;20880;-69
2022/04/24 12:41:11;;;;;;;0.40;0.20;;;10.70;99.90;;;;;;5022124;28;20783;-68
2022/04/24 12:43:38;;;;;;;6.90;1.00;;;10.60;99.90;;;;;;5022963;28;20449;-69
2022/04/24 12:46:05;;;;;;;0.40;0.20;;;10.70;99.90;;;;;;5019872;28;20443;-69
2022/04/24 12:48:31;;;;;;;0.40;0.20;;;10.70;99.90;;;;;;5020336;28;20938;-69
2022/04/24 12:50:57;;;;;;;0.40;0.20;;;10.60;99.90;;;;;;5021146;28;20459;-68
2022/04/24 12:53:23;;;;;;;0.40;0.20;;;10.50;99.90;;;;;;5022027;28;20401;-70
2022/04/24 12:55:53;;;;;;;0.40;0.30;;;10.40;99.90;;;;;;5019492;28;20428;-69
2022/04/24 12:58:19;;;;;;;0.40;0.20;;;10.40;99.90;;;;;;5021149;28;20848;-68
2022/04/24 13:00:46;;;;;;;1.00;0.90;;;10.30;99.90;;;;;;5017053;28;20389;-69